Time;durP1;ratioP1;P1;durP2;ratioP2;P2;SDS_P1;SDS_P2;PMS_P1;PMS_P2;Temp;Humidity;BMP_temperature;BMP_pressure;BME280_temperature;BME280_humidity;BME280_pressure;Samples;Min_cycle;Max_cycle;Signal;HPM_P1;HPM_P2
2021/01/30 00:01:55;;;;;;;;;;;;;;;30.08;18.53;99447.53;5139012;27;1948;-30
2021/01/30 00:04:20;;;;;;;;;;;;;;;29.84;18.43;99456.47;5139385;27;867;-25
2021/01/30 00:06:51;;;;;;;;;;;;;;;29.37;19.03;99446.28;5159840;27;941;-33
2021/01/30 00:09:17;;;;;;;;;;;;;;;29.76;18.64;99443.25;5159484;27;763;-24
2021/01/30 00:11:46;;;;;;;;;;;;;;;29.97;18.67;99436.44;5159907;27;734;-26
2021/01/30 00:14:11;;;;;;;;;;;;;;;30.13;18.33;99434.91;5159168;27;925;-29
2021/01/30 00:16:36;;;;;;;;;;;;;;;29.78;18.25;99428.41;5159947;27;814;-29
2021/01/30 00:19:02;;;;;;;;;;;;;;;29.34;18.83;99421.31;5159865;27;913;-27
2021/01/30 00:21:27;;;;;;;;;;;;;;;29.80;18.61;99415.44;5159840;27;1913;-28
2021/01/30 00:23:53;;;;;;;;;;;;;;;30.03;18.60;99408.38;5159853;27;806;-27
2021/01/30 00:26:18;;;;;;;;;;;;;;;30.13;18.12;99407.00;5159572;27;758;-29
2021/01/30 00:28:43;;;;;;;;;;;;;;;29.85;18.58;99398.47;5159208;27;909;-30
2021/01/30 00:31:09;;;;;;;;;;;;;;;29.28;18.83;99403.28;5159660;27;762;-27
2021/01/30 00:33:34;;;;;;;;;;;;;;;29.74;18.73;99389.28;5159151;27;866;-33
2021/01/30 00:35:59;;;;;;;;;;;;;;;30.00;18.26;99389.03;5159406;27;763;-27
2021/01/30 00:38:24;;;;;;;;;;;;;;;29.82;18.46;99386.22;5159730;27;807;-26
2021/01/30 00:40:50;;;;;;;;;;;;;;;29.20;18.97;99385.50;5159122;27;1089;-27
2021/01/30 00:43:15;;;;;;;;;;;;;;;29.42;19.14;99386.84;5158836;27;1913;-29
2021/01/30 00:45:40;;;;;;;;;;;;;;;29.82;18.90;99380.81;5159330;27;806;-28
2021/01/30 00:48:06;;;;;;;;;;;;;;;30.01;18.29;99379.88;5159162;27;782;-26
2021/01/30 00:50:31;;;;;;;;;;;;;;;29.92;18.51;99377.50;5159460;27;779;-28
2021/01/30 00:52:56;;;;;;;;;;;;;;;29.40;18.69;99373.53;5159439;27;766;-27
2021/01/30 00:55:22;;;;;;;;;;;;;;;29.25;19.11;99373.97;5158926;27;806;-28
2021/01/30 00:57:47;;;;;;;;;;;;;;;29.77;18.75;99372.56;5158214;27;1316;-25
2021/01/30 01:00:14;;;;;;;;;;;;;;;29.99;18.54;99371.13;5159248;27;751;-26
2021/01/30 01:02:39;;;;;;;;;;;;;;;30.02;18.40;99367.94;5158369;27;1955;-24
2021/01/30 01:05:05;;;;;;;;;;;;;;;29.74;18.51;99350.50;5158757;27;828;-29
2021/01/30 01:07:30;;;;;;;;;;;;;;;29.20;18.93;99353.00;5158940;27;783;-30
2021/01/30 01:09:55;;;;;;;;;;;;;;;29.89;18.44;99340.03;5158782;27;780;-32
2021/01/30 01:12:21;;;;;;;;;;;;;;;30.01;18.36;99331.88;5158703;27;786;-30
2021/01/30 01:14:46;;;;;;;;;;;;;;;30.15;18.10;99326.19;5158511;27;1008;-25
2021/01/30 01:17:11;;;;;;;;;;;;;;;29.53;18.58;99328.34;5158532;27;782;-27
2021/01/30 01:19:36;;;;;;;;;;;;;;;29.18;19.21;99319.06;5157927;27;790;-29
2021/01/30 01:22:02;;;;;;;;;;;;;;;29.73;18.54;99309.03;5158737;27;1935;-27
2021/01/30 01:24:27;;;;;;;;;;;;;;;29.96;18.31;99312.81;5158183;27;985;-27
2021/01/30 01:26:52;;;;;;;;;;;;;;;30.02;18.40;99305.59;5158804;27;746;-25
2021/01/30 01:29:19;;;;;;;;;;;;;;;29.47;19.08;99294.88;5158227;27;921;-28
2021/01/30 01:31:48;;;;;;;;;;;;;;;29.51;19.23;99289.81;5158125;27;798;-25
2021/01/30 01:34:13;;;;;;;;;;;;;;;29.85;18.73;99295.47;5158698;27;816;-29
2021/01/30 01:36:39;;;;;;;;;;;;;;;30.01;18.51;99290.41;5158590;27;755;-27
2021/01/30 01:39:04;;;;;;;;;;;;;;;29.76;18.87;99281.44;5157970;27;819;-29
2021/01/30 01:41:29;;;;;;;;;;;;;;;29.30;19.28;99275.75;5158267;27;1992;-29
2021/01/30 01:43:55;;;;;;;;;;;;;;;29.71;19.23;99273.22;5158307;27;961;-31
2021/01/30 01:46:23;;;;;;;;;;;;;;;29.99;18.66;99263.53;5157866;27;794;-29
2021/01/30 01:48:55;;;;;;;;;;;;;;;30.08;18.72;99266.66;5158830;27;735;-23
2021/01/30 01:51:30;;;;;;;;;;;;;;;29.62;18.94;99261.09;5158294;27;818;-27
2021/01/30 01:53:56;;;;;;;;;;;;;;;29.14;19.56;99253.75;5139529;27;762;-29
2021/01/30 01:56:22;;;;;;;;;;;;;;;29.81;19.14;99249.03;5139543;27;815;-27
2021/01/30 01:58:48;;;;;;;;;;;;;;;29.99;18.85;99251.84;5135568;27;1197;-26
2021/01/30 02:01:13;;;;;;;;;;;;;;;30.09;18.61;99233.09;5136036;27;747;-26
2021/01/30 02:03:43;;;;;;;;;;;;;;;29.51;19.13;99236.44;5137497;27;1957;-28
2021/01/30 02:06:08;;;;;;;;;;;;;;;29.49;19.26;99235.03;5136567;28;841;-28
2021/01/30 02:08:34;;;;;;;;;;;;;;;29.85;19.14;99235.84;5135459;28;759;-26
2021/01/30 02:10:59;;;;;;;;;;;;;;;30.01;18.83;99225.31;5137211;28;811;-24
2021/01/30 02:13:26;;;;;;;;;;;;;;;30.07;18.69;99216.22;5144488;27;925;-31
2021/01/30 02:16:04;;;;;;;;;;;;;;;29.69;19.19;99207.59;5139418;27;771;-29
2021/01/30 02:18:33;;;;;;;;;;;;;;;29.73;19.21;99216.88;5139460;27;831;-26
2021/01/30 02:21:17;;;;;;;;;;;;;;;29.93;19.12;99213.78;5138995;27;786;-25
2021/01/30 02:24:00;;;;;;;;;;;;;;;30.10;18.74;99210.31;5157730;27;1960;-25
2021/01/30 02:26:35;;;;;;;;;;;;;;;29.83;19.17;99208.16;5158044;27;847;-25
2021/01/30 02:29:18;;;;;;;;;;;;;;;29.42;19.34;99203.47;5157546;27;901;-26
2021/01/30 02:31:49;;;;;;;;;;;;;;;29.98;18.86;99213.06;5160167;27;809;-31
2021/01/30 02:34:20;;;;;;;;;;;;;;;30.06;18.82;99203.75;5161988;27;755;-33
2021/01/30 02:36:46;;;;;;;;;;;;;;;29.78;19.14;99197.22;5162067;27;846;-30
2021/01/30 02:39:21;;;;;;;;;;;;;;;29.41;19.40;99192.88;5161672;27;774;-25
2021/01/30 02:41:52;;;;;;;;;;;;;;;29.90;19.30;99195.28;5119166;28;1913;-32
2021/01/30 02:44:17;;;;;;;;;;;;;;;30.04;18.98;99193.13;5122381;27;965;-24
2021/01/30 02:46:45;;;;;;;;;;;;;;;30.03;18.75;99190.66;5122645;27;732;-24
2021/01/30 02:49:13;;;;;;;;;;;;;;;29.77;19.25;99187.44;5122315;27;768;-28
2021/01/30 02:51:39;;;;;;;;;;;;;;;29.66;19.62;99179.06;5122432;27;847;-25
2021/01/30 02:54:05;;;;;;;;;;;;;;;30.03;18.94;99179.81;5140589;27;776;-30
2021/01/30 02:56:31;;;;;;;;;;;;;;;30.13;18.84;99182.72;5140713;27;1083;-24
2021/01/30 02:59:03;;;;;;;;;;;;;;;29.87;19.29;99174.09;5140490;27;949;-26
2021/01/30 03:01:28;;;;;;;;;;;;;;;29.39;19.78;99168.75;5139985;27;1469;-23
2021/01/30 03:03:58;;;;;;;;;;;;;;;29.89;19.05;99171.97;5140566;27;1905;-34
2021/01/30 03:06:29;;;;;;;;;;;;;;;30.05;18.95;99164.94;5140623;27;871;-28
2021/01/30 03:09:03;;;;;;;;;;;;;;;29.87;19.24;99168.66;5140298;27;762;-27
2021/01/30 03:11:52;;;;;;;;;;;;;;;29.26;19.59;99168.97;5140480;27;850;-27
2021/01/30 03:14:19;;;;;;;;;;;;;;;29.90;19.11;99167.34;5134280;27;1210;-27
2021/01/30 03:16:44;;;;;;;;;;;;;;;30.01;19.14;99171.91;5140460;27;809;-27
2021/01/30 03:19:15;;;;;;;;;;;;;;;29.92;19.18;99173.38;5122643;27;800;-28
2021/01/30 03:21:41;;;;;;;;;;;;;;;29.46;19.79;99165.91;5122121;27;1973;-27
2021/01/30 03:24:06;;;;;;;;;;;;;;;29.81;19.52;99172.34;5139922;27;930;-32
2021/01/30 03:26:33;;;;;;;;;;;;;;;29.94;19.30;99163.09;5140780;27;807;-32
2021/01/30 03:28:58;;;;;;;;;;;;;;;29.61;19.75;99148.34;5139886;27;953;-26
2021/01/30 03:31:23;;;;;;;;;;;;;;;29.28;19.94;99153.31;5139800;27;798;-26
2021/01/30 03:33:49;;;;;;;;;;;;;;;29.75;19.72;99157.03;5140371;27;783;-30
2021/01/30 03:36:14;;;;;;;;;;;;;;;30.07;19.32;99159.28;5140192;27;885;-26
2021/01/30 03:38:39;;;;;;;;;;;;;;;29.59;19.82;99154.00;5139617;27;758;-25
2021/01/30 03:41:05;;;;;;;;;;;;;;;29.17;20.08;99146.84;5139658;27;1093;-25
2021/01/30 03:43:30;;;;;;;;;;;;;;;29.76;19.69;99154.06;5138401;27;1910;-25
2021/01/30 03:45:55;;;;;;;;;;;;;;;29.99;19.10;99156.97;5139516;27;795;-32
2021/01/30 03:48:21;;;;;;;;;;;;;;;29.22;20.24;99149.66;5140033;27;755;-28
2021/01/30 03:50:46;;;;;;;;;;;;;;;29.56;20.02;99141.72;5139816;27;775;-26
2021/01/30 03:53:11;;;;;;;;;;;;;;;29.92;19.30;99147.09;5139418;27;874;-31
2021/01/30 03:55:37;;;;;;;;;;;;;;;30.07;19.49;99148.44;5139598;27;877;-28
2021/01/30 03:58:02;;;;;;;;;;;;;;;29.54;19.85;99143.03;5125985;27;1098;-31
2021/01/30 04:00:28;;;;;;;;;;;;;;;29.29;20.17;99138.72;5118519;28;902;-29
2021/01/30 04:02:53;;;;;;;;;;;;;;;29.92;19.30;99130.81;5119090;28;1905;-28
2021/01/30 04:05:21;;;;;;;;;;;;;;;29.65;19.90;99136.78;5119002;28;771;-29
2021/01/30 04:07:46;;;;;;;;;;;;;;;29.12;20.23;99120.47;5118517;28;736;-29
2021/01/30 04:10:12;;;;;;;;;;;;;;;29.50;20.08;99131.00;5119106;28;787;-29
2021/01/30 04:12:39;;;;;;;;;;;;;;;29.73;19.30;99118.53;5118359;27;907;-26
2021/01/30 04:15:04;;;;;;;;;;;;;;;29.94;18.54;99117.03;5118562;28;782;-26
2021/01/30 04:17:30;;;;;;;;;;;;;;;29.24;19.38;99112.34;5118545;28;721;-32
2021/01/30 04:19:55;;;;;;;;;;;;;;;28.67;20.15;99114.56;5118243;28;826;-26
2021/01/30 04:22:20;;;;;;;;;;;;;;;28.24;20.22;99119.94;5118443;28;1906;-29
2021/01/30 04:24:45;;;;;;;;;;;;;;;27.87;20.57;99115.47;5118679;28;750;-31
2021/01/30 04:27:12;;;;;;;;;;;;;;;28.39;20.13;99112.50;5118469;28;839;-24
2021/01/30 04:29:38;;;;;;;;;;;;;;;29.02;19.30;99109.41;5118351;27;962;-26
2021/01/30 04:32:03;;;;;;;;;;;;;;;27.53;21.10;99114.22;5118597;28;819;-30
2021/01/30 04:34:29;;;;;;;;;;;;;;;27.13;21.83;99108.19;5118619;28;767;-26
2021/01/30 04:36:54;;;;;;;;;;;;;;;28.47;20.45;99094.06;5118212;28;810;-30
2021/01/30 04:39:19;;;;;;;;;;;;;;;28.31;20.45;99100.13;5118435;28;771;-23
2021/01/30 04:41:53;;;;;;;;;;;;;;;24.69;21.23;99093.94;5138715;27;1906;-22
2021/01/30 04:44:31;;;;;;;;;;;;;;;24.53;21.85;99092.50;5153420;27;1004;-24
2021/01/30 04:47:05;;;;;;;;;;;;;;;24.83;21.96;99085.88;5159649;27;874;-26
2021/01/30 04:49:57;;;;;;;;;;;;;;;24.34;22.34;99078.81;5159591;27;763;-28
2021/01/30 04:52:33;;;;;;;;;;;;;;;25.55;21.76;99086.97;5120943;27;1208;-27
2021/01/30 04:55:17;;;;;;;;;;;;;;;26.80;20.35;99085.00;5136409;27;803;-26
2021/01/30 04:58:01;;;;;;;;;;;;;;;27.24;20.67;99083.13;5148619;27;1143;-24
2021/01/30 05:00:35;;;;;;;;;;;;;;;27.37;20.16;99074.09;5158905;27;819;-28
2021/01/30 05:03:07;;;;;;;;;;;;;;;26.00;20.89;99069.19;5159173;27;1992;-28
2021/01/30 05:05:32;;;;;;;;;;;;;;;25.10;21.96;99058.13;5158553;27;842;-26
2021/01/30 05:08:12;;;;;;;;;;;;;;;23.40;24.01;99060.56;5159295;27;766;-26
2021/01/30 05:10:37;;;;;;;;;;;;;;;22.25;25.58;99057.03;5140365;27;834;-30
2021/01/30 05:13:10;;;;;;;;;;;;;;;22.51;25.10;99051.06;5135525;27;941;-27
2021/01/30 05:15:43;;;;;;;;;;;;;;;22.30;25.96;99048.41;5138453;27;733;-28
2021/01/30 05:18:09;;;;;;;;;;;;;;;22.17;25.71;99049.09;5137975;27;791;-26
2021/01/30 05:20:35;;;;;;;;;;;;;;;22.01;26.10;99049.16;5137784;27;850;-29
2021/01/30 05:23:00;;;;;;;;;;;;;;;21.67;26.48;99039.91;5137876;27;1897;-25
2021/01/30 05:25:26;;;;;;;;;;;;;;;22.10;25.68;99043.69;5136772;27;1419;-26
2021/01/30 05:27:57;;;;;;;;;;;;;;;22.78;24.51;99047.78;5136769;27;818;-29
2021/01/30 05:30:37;;;;;;;;;;;;;;;23.35;24.08;99039.66;5137918;27;731;-27
2021/01/30 05:33:12;;;;;;;;;;;;;;;23.46;24.03;99032.09;5136641;27;783;-24
2021/01/30 05:35:43;;;;;;;;;;;;;;;24.97;22.70;99026.72;5136459;27;803;-25
2021/01/30 05:38:15;;;;;;;;;;;;;;;27.30;19.72;99030.13;5137698;27;842;-28
2021/01/30 05:40:47;;;;;;;;;;;;;;;28.07;18.77;99025.19;5124808;27;1138;-25
2021/01/30 05:43:23;;;;;;;;;;;;;;;27.72;19.54;99024.03;5115233;28;1975;-26
2021/01/30 05:45:53;;;;;;;;;;;;;;;27.66;19.67;99030.28;5115624;28;838;-24
2021/01/30 05:48:22;;;;;;;;;;;;;;;27.81;19.48;99016.41;5117282;28;786;-27
2021/01/30 05:50:51;;;;;;;;;;;;;;;28.09;19.29;99022.25;5115019;28;856;-25
2021/01/30 05:53:18;;;;;;;;;;;;;;;27.90;19.45;99016.06;5115762;28;564;-25
2021/01/30 05:55:44;;;;;;;;;;;;;;;27.55;20.13;99017.56;5115879;28;754;-32
2021/01/30 05:58:10;;;;;;;;;;;;;;;28.07;19.81;99014.38;5130553;27;1145;-27
2021/01/30 06:00:36;;;;;;;;;;;;;;;28.12;20.07;99016.38;5118991;28;1262;-30
2021/01/30 06:03:04;;;;;;;;;;;;;;;28.16;20.08;99014.03;5137534;27;1901;-27
2021/01/30 06:05:31;;;;;;;;;;;;;;;28.01;19.74;99014.47;5136825;27;812;-25
2021/01/30 06:08:06;;;;;;;;;;;;;;;28.06;19.76;99011.91;5137329;28;795;-31
2021/01/30 06:10:31;;;;;;;;;;;;;;;28.39;19.53;99007.88;5117126;28;833;-27
2021/01/30 06:13:07;;;;;;;;;;;;;;;28.30;19.45;99001.09;5136720;28;954;-33
2021/01/30 06:15:33;;;;;;;;;;;;;;;28.98;18.83;99003.50;5118688;28;789;-31
2021/01/30 06:17:59;;;;;;;;;;;;;;;29.11;18.69;98998.88;5137153;28;842;-24
2021/01/30 06:20:25;;;;;;;;;;;;;;;28.99;18.90;98996.19;5118407;28;774;-26
2021/01/30 06:23:02;;;;;;;;;;;;;;;28.46;19.57;99005.03;5137285;28;1963;-29
2021/01/30 06:25:31;;;;;;;;;;;;;;;28.94;19.37;99003.13;5137766;28;814;-28
2021/01/30 06:27:57;;;;;;;;;;;;;;;29.07;19.16;99006.66;5136504;28;958;-24
2021/01/30 06:30:32;;;;;;;;;;;;;;;29.38;18.24;98999.13;5118581;28;919;-24
2021/01/30 06:33:01;;;;;;;;;;;;;;;28.52;19.55;98997.84;5137329;28;775;-30
2021/01/30 06:35:30;;;;;;;;;;;;;;;28.09;20.00;98987.09;5118533;28;930;-26
2021/01/30 06:38:02;;;;;;;;;;;;;;;28.76;19.82;98989.75;5119054;28;788;-28
2021/01/30 06:40:27;;;;;;;;;;;;;;;28.74;20.14;98992.69;5118484;28;1164;-23
2021/01/30 06:42:54;;;;;;;;;;;;;;;28.47;20.68;98991.28;5135915;28;1913;-29
2021/01/30 06:45:22;;;;;;;;;;;;;;;28.46;20.79;98986.91;5135392;28;959;-26
2021/01/30 06:47:48;;;;;;;;;;;;;;;28.57;20.54;98979.88;5136650;28;835;-25
2021/01/30 06:50:25;;;;;;;;;;;;;;;28.78;20.30;98983.00;5136323;28;800;-27
2021/01/30 06:52:50;;;;;;;;;;;;;;;28.93;20.07;98977.09;5137066;28;803;-30
2021/01/30 06:55:15;;;;;;;;;;;;;;;29.14;19.96;98971.31;5118742;28;759;-26
2021/01/30 06:57:48;;;;;;;;;;;;;;;29.39;20.01;98965.59;5135959;28;1157;-25
2021/01/30 07:00:20;;;;;;;;;;;;;;;29.54;19.59;98965.06;5136656;28;818;-24
2021/01/30 07:02:46;;;;;;;;;;;;;;;29.76;19.71;98964.38;5136484;28;1917;-23
2021/01/30 07:05:27;;;;;;;;;;;;;;;29.94;19.60;98959.78;5136758;28;738;-24
2021/01/30 07:08:10;;;;;;;;;;;;;;;30.06;19.32;98963.22;5136978;28;861;-24
2021/01/30 07:10:53;;;;;;;;;;;;;;;30.25;19.40;98960.31;5136918;28;798;-23
2021/01/30 07:13:18;;;;;;;;;;;;;;;30.57;18.55;98966.16;5117231;28;824;-29
2021/01/30 07:16:02;;;;;;;;;;;;;;;30.49;18.68;98960.13;5137452;28;813;-25
2021/01/30 07:18:27;;;;;;;;;;;;;;;30.53;19.34;98958.53;5138677;27;810;-25
2021/01/30 07:20:53;;;;;;;;;;;;;;;30.68;18.69;98965.22;5139583;27;887;-24
2021/01/30 07:23:24;;;;;;;;;;;;;;;30.55;18.78;98964.53;5140107;27;1909;-26
2021/01/30 07:25:52;;;;;;;;;;;;;;;30.58;19.00;98954.25;5122150;27;787;-23
2021/01/30 07:28:25;;;;;;;;;;;;;;;30.26;19.76;98951.09;5121122;27;1001;-25
2021/01/30 07:30:53;;;;;;;;;;;;;;;30.34;19.80;98954.47;5121755;27;730;-27
2021/01/30 07:33:20;;;;;;;;;;;;;;;30.17;20.03;98947.13;5140008;27;779;-23
2021/01/30 07:35:51;;;;;;;;;;;;;;;30.15;20.36;98949.25;5121959;27;808;-23
2021/01/30 07:38:24;;;;;;;;;;;;;;;30.29;20.26;98953.31;5121734;27;800;-27
2021/01/30 07:40:50;;;;;;;;;;;;;;;30.49;20.09;98951.97;5121256;27;1295;-23
2021/01/30 07:43:15;;;;;;;;;;;;;;;30.96;19.04;98954.50;5139727;27;1967;-27
2021/01/30 07:45:43;;;;;;;;;;;;;;;31.00;18.90;98956.44;5139747;27;771;-25
2021/01/30 07:48:27;;;;;;;;;;;;;;;30.30;20.45;98957.66;5121531;27;1021;-24
2021/01/30 07:50:53;;;;;;;;;;;;;;;30.10;20.55;98957.31;5139858;27;846;-23
2021/01/30 07:53:19;;;;;;;;;;;;;;;30.25;20.61;98951.34;5121366;27;823;-23
2021/01/30 07:56:03;;;;;;;;;;;;;;;30.38;20.66;98950.19;5121801;27;815;-30
2021/01/30 07:58:28;;;;;;;;;;;;;;;30.53;20.52;98947.69;5139149;27;1170;-25
2021/01/30 08:01:02;;;;;;;;;;;;;;;31.21;19.14;98953.97;5139427;27;854;-25
2021/01/30 08:03:36;;;;;;;;;;;;;;;31.20;19.27;98954.25;5139247;27;1963;-25
2021/01/30 08:06:04;;;;;;;;;;;;;;;30.22;20.65;98954.53;5139401;27;806;-23
2021/01/30 08:08:33;;;;;;;;;;;;;;;30.22;20.73;98955.38;5139605;27;810;-25
2021/01/30 08:11:17;;;;;;;;;;;;;;;30.19;21.07;98953.97;5139447;27;775;-24
2021/01/30 08:14:01;;;;;;;;;;;;;;;30.30;20.92;98949.53;5139106;27;942;-31
2021/01/30 08:16:33;;;;;;;;;;;;;;;31.08;19.50;98954.38;5139704;27;848;-24
2021/01/30 08:18:59;;;;;;;;;;;;;;;31.20;19.64;98954.25;5138969;27;728;-24
2021/01/30 08:21:45;;;;;;;;;;;;;;;31.30;19.51;98958.97;5120554;27;851;-27
2021/01/30 08:24:13;;;;;;;;;;;;;;;31.31;19.47;98966.03;5120925;27;767;-27
2021/01/30 08:26:41;;;;;;;;;;;;;;;30.90;18.49;98964.47;5120445;27;817;-27
2021/01/30 08:29:13;;;;;;;;;;;;;;;30.54;19.06;98959.38;5119836;27;1009;-27
2021/01/30 08:31:45;;;;;;;;;;;;;;;30.76;18.94;98953.13;5139421;27;850;-23
2021/01/30 08:34:13;;;;;;;;;;;;;;;30.36;19.51;98944.19;5120249;27;759;-28
2021/01/30 08:36:42;;;;;;;;;;;;;;;30.22;19.74;98949.94;5138973;27;874;-26
2021/01/30 08:39:16;;;;;;;;;;;;;;;30.33;19.70;98950.91;5139138;27;806;-25
2021/01/30 08:41:43;;;;;;;;;;;;;;;30.40;19.63;98940.72;5138136;27;1340;-24
2021/01/30 08:44:17;;;;;;;;;;;;;;;30.66;19.69;98942.97;5152108;27;1979;-23
2021/01/30 08:46:43;;;;;;;;;;;;;;;30.92;19.30;98936.00;5140336;27;835;-23
2021/01/30 08:49:14;;;;;;;;;;;;;;;31.26;18.86;98945.84;5140773;27;844;-24
2021/01/30 08:51:42;;;;;;;;;;;;;;;31.01;19.62;98944.50;5159392;27;771;-22
2021/01/30 08:54:23;;;;;;;;;;;;;;;30.23;20.65;98938.03;5159486;27;770;-25
2021/01/30 08:56:51;;;;;;;;;;;;;;;30.35;20.50;98945.25;5155831;27;1074;-25
2021/01/30 08:59:35;;;;;;;;;;;;;;;30.45;20.48;98939.97;5136716;27;1009;-30
2021/01/30 09:02:00;;;;;;;;;;;;;;;30.59;20.59;98937.72;5137975;27;1901;-28
2021/01/30 09:04:39;;;;;;;;;;;;;;;31.28;19.06;98937.47;5138378;27;826;-25
2021/01/30 09:07:04;;;;;;;;;;;;;;;31.35;19.13;98923.66;5138654;27;731;-23
2021/01/30 09:09:30;;;;;;;;;;;;;;;31.36;19.60;98928.88;5138249;27;838;-25
2021/01/30 09:11:55;;;;;;;;;;;;;;;31.42;19.31;98928.94;5138008;27;767;-27
2021/01/30 09:14:21;;;;;;;;;;;;;;;31.31;19.36;98928.00;5137100;27;945;-23
2021/01/30 09:16:58;;;;;;;;;;;;;;;31.21;19.32;98923.28;5138333;27;828;-25
2021/01/30 09:19:32;;;;;;;;;;;;;;;31.17;18.74;98922.97;5137936;27;751;-24
2021/01/30 09:22:00;;;;;;;;;;;;;;;31.15;19.10;98923.22;5138057;27;1972;-24
2021/01/30 09:24:29;;;;;;;;;;;;;;;31.31;19.01;98925.28;5137287;27;871;-23
2021/01/30 09:26:57;;;;;;;;;;;;;;;30.34;20.80;98928.16;5138183;27;830;-29
2021/01/30 09:29:23;;;;;;;;;;;;;;;30.27;20.91;98925.63;5153213;27;953;-22
2021/01/30 09:31:57;;;;;;;;;;;;;;;31.00;19.36;98917.59;5158295;27;825;-26
2021/01/30 09:34:22;;;;;;;;;;;;;;;31.09;19.28;98920.69;5158919;27;828;-29
2021/01/30 09:36:48;;;;;;;;;;;;;;;31.07;19.68;98911.97;5158473;27;835;-27
2021/01/30 09:39:23;;;;;;;;;;;;;;;31.03;18.04;98903.53;5158074;27;774;-23
2021/01/30 09:41:48;;;;;;;;;;;;;;;31.01;18.37;98901.06;5158070;27;1917;-23
2021/01/30 09:44:20;;;;;;;;;;;;;;;31.15;18.61;98904.19;5157888;27;1023;-24
2021/01/30 09:46:47;;;;;;;;;;;;;;;31.21;18.93;98899.66;5158126;27;796;-29
2021/01/30 09:49:15;;;;;;;;;;;;;;;31.10;17.87;98896.00;5139935;27;747;-25
2021/01/30 09:51:41;;;;;;;;;;;;;;;30.29;19.32;98890.13;5139599;27;821;-25
2021/01/30 09:54:07;;;;;;;;;;;;;;;29.72;19.70;98898.19;5139422;27;819;-30
2021/01/30 09:56:33;;;;;;;;;;;;;;;29.95;19.05;98896.38;5157616;27;1457;-24
2021/01/30 09:58:59;;;;;;;;;;;;;;;30.48;18.82;98904.19;5135777;27;990;-26
2021/01/30 10:01:24;;;;;;;;;;;;;;;30.44;19.28;98894.94;5135982;27;783;-24
2021/01/30 10:03:49;;;;;;;;;;;;;;;29.94;20.13;98886.59;5136983;27;1901;-26
2021/01/30 10:06:19;;;;;;;;;;;;;;;30.01;20.04;98892.66;5137400;27;773;-30
2021/01/30 10:08:44;;;;;;;;;;;;;;;30.14;20.10;98890.69;5135840;28;1478;-26
2021/01/30 10:11:12;;;;;;;;;;;;;;;30.16;20.42;98892.06;5136943;27;727;-25
2021/01/30 10:13:38;;;;;;;;;;;;;;;30.42;19.76;98889.75;5135771;28;1009;-25
2021/01/30 10:16:04;;;;;;;;;;;;;;;30.45;18.99;98901.19;5137393;27;810;-25
2021/01/30 10:18:33;;;;;;;;;;;;;;;30.85;19.17;98905.50;5135355;28;1233;-25
2021/01/30 10:21:01;;;;;;;;;;;;;;;30.57;20.16;98907.31;5136016;28;725;-23
2021/01/30 10:23:28;;;;;;;;;;;;;;;30.90;19.31;98908.28;5137190;27;1894;-31
2021/01/30 10:26:23;;;;;;;;;;;;;;;30.94;19.30;98897.72;5136506;27;841;-24
2021/01/30 10:28:51;;;;;;;;;;;;;;;30.96;19.91;98901.03;5129669;27;1318;-25
2021/01/30 10:31:17;;;;;;;;;;;;;;;31.06;19.74;98903.03;5157457;27;796;-25
2021/01/30 10:33:44;;;;;;;;;;;;;;;31.20;19.79;98911.59;5139456;27;799;-26
2021/01/30 10:36:10;;;;;;;;;;;;;;;30.39;20.94;98917.38;5139607;27;786;-24
2021/01/30 10:38:35;;;;;;;;;;;;;;;30.33;21.25;98909.44;5157860;27;786;-28
2021/01/30 10:41:01;;;;;;;;;;;;;;;30.93;20.25;98909.66;5139210;27;1097;-27
2021/01/30 10:43:34;;;;;;;;;;;;;;;31.14;19.90;98918.03;5131909;28;1962;-27
2021/01/30 10:46:04;;;;;;;;;;;;;;;30.73;20.94;98921.06;5136947;28;800;-23
2021/01/30 10:48:32;;;;;;;;;;;;;;;31.13;19.81;98919.94;5118886;28;771;-22
2021/01/30 10:51:05;;;;;;;;;;;;;;;31.12;20.04;98914.75;5131559;28;828;-24
2021/01/30 10:53:30;;;;;;;;;;;;;;;31.10;20.02;98911.47;5140663;27;737;-31
2021/01/30 10:55:55;;;;;;;;;;;;;;;31.24;20.15;98917.31;5141352;27;743;-27
2021/01/30 10:58:26;;;;;;;;;;;;;;;31.31;20.13;98909.81;5149382;27;1209;-23
2021/01/30 11:01:08;;;;;;;;;;;;;;;30.72;21.04;98911.28;5140583;27;919;-24
2021/01/30 11:03:41;;;;;;;;;;;;;;;30.42;21.49;98916.06;5140934;27;1960;-28
2021/01/30 11:06:25;;;;;;;;;;;;;;;30.95;20.57;98910.22;5141053;27;819;-26
2021/01/30 11:08:51;;;;;;;;;;;;;;;31.23;20.35;98912.97;5140465;27;854;-29
2021/01/30 11:11:21;;;;;;;;;;;;;;;30.48;21.52;98906.91;5140242;27;803;-30
2021/01/30 11:13:46;;;;;;;;;;;;;;;30.24;21.80;98912.56;5138086;27;1001;-28
2021/01/30 11:16:13;;;;;;;;;;;;;;;30.29;21.63;98906.38;5140295;27;1445;-24
2021/01/30 11:18:39;;;;;;;;;;;;;;;30.36;21.84;98903.50;5143913;27;811;-29
2021/01/30 11:21:06;;;;;;;;;;;;;;;30.40;21.82;98901.91;5160937;27;723;-22
2021/01/30 11:23:42;;;;;;;;;;;;;;;31.23;20.53;98905.63;5142127;27;1956;-24
2021/01/30 11:26:14;;;;;;;;;;;;;;;31.31;20.02;98906.25;5161207;27;743;-28
2021/01/30 11:28:40;;;;;;;;;;;;;;;30.43;21.43;98913.09;5160567;27;988;-24
2021/01/30 11:31:05;;;;;;;;;;;;;;;30.26;21.53;98907.69;5160643;27;802;-30
2021/01/30 11:33:31;;;;;;;;;;;;;;;29.93;20.73;98917.47;5142259;27;862;-25
2021/01/30 11:35:56;;;;;;;;;;;;;;;29.90;20.89;98916.09;5160880;27;835;-33
2021/01/30 11:38:22;;;;;;;;;;;;;;;30.01;20.56;98918.97;5160786;27;822;-30
2021/01/30 11:40:52;;;;;;;;;;;;;;;31.00;19.31;98923.88;5160376;27;1216;-23
2021/01/30 11:43:18;;;;;;;;;;;;;;;31.12;19.12;98925.63;5160274;27;1909;-24
2021/01/30 11:45:43;;;;;;;;;;;;;;;30.71;20.07;98926.75;5160389;27;867;-23
2021/01/30 11:48:08;;;;;;;;;;;;;;;31.15;19.38;98925.94;5160532;27;811;-26
2021/01/30 11:50:34;;;;;;;;;;;;;;;31.09;19.31;98928.84;5160367;27;842;-26
2021/01/30 11:53:06;;;;;;;;;;;;;;;31.14;19.44;98918.03;5160450;27;848;-26
2021/01/30 11:55:31;;;;;;;;;;;;;;;31.26;19.34;98917.91;5160374;27;752;-28
2021/01/30 11:57:56;;;;;;;;;;;;;;;31.34;19.11;98922.88;5147578;27;1082;-25
2021/01/30 12:00:22;;;;;;;;;;;;;;;31.38;19.13;98917.75;5139558;27;779;-26
2021/01/30 12:02:47;;;;;;;;;;;;;;;30.27;20.52;98911.22;5139233;27;2017;-27
2021/01/30 12:05:13;;;;;;;;;;;;;;;30.68;20.13;98919.09;5139090;27;826;-26
2021/01/30 12:07:38;;;;;;;;;;;;;;;30.84;19.90;98913.91;5138898;27;823;-25
2021/01/30 12:10:04;;;;;;;;;;;;;;;31.04;19.79;98919.56;5139158;27;846;-31
2021/01/30 12:12:30;;;;;;;;;;;;;;;30.71;20.10;98921.34;5139872;27;767;-31
2021/01/30 12:14:55;;;;;;;;;;;;;;;31.16;19.26;98921.31;5138504;27;937;-26
2021/01/30 12:17:33;;;;;;;;;;;;;;;31.06;19.37;98930.19;5139161;27;806;-28
2021/01/30 12:19:58;;;;;;;;;;;;;;;31.04;18.90;98937.75;5139374;27;755;-27
2021/01/30 12:22:23;;;;;;;;;;;;;;;31.10;17.05;98931.31;5138419;27;1957;-32
2021/01/30 12:24:49;;;;;;;;;;;;;;;30.96;17.79;98943.63;5139141;27;929;-34
2021/01/30 12:27:14;;;;;;;;;;;;;;;31.01;17.91;98941.78;5139247;27;721;-26
2021/01/30 12:29:40;;;;;;;;;;;;;;;30.03;19.21;98950.16;5138288;27;996;-30
2021/01/30 12:32:05;;;;;;;;;;;;;;;30.56;18.46;98946.38;5138851;27;841;-27
2021/01/30 12:34:30;;;;;;;;;;;;;;;30.73;18.52;98946.31;5138974;27;731;-26
2021/01/30 12:36:56;;;;;;;;;;;;;;;30.52;19.05;98946.03;5138956;27;862;-31
2021/01/30 12:39:21;;;;;;;;;;;;;;;29.94;20.00;98952.50;5138867;27;1185;-27
2021/01/30 12:41:47;;;;;;;;;;;;;;;29.92;19.96;98951.06;5159586;27;802;-30
2021/01/30 12:44:12;;;;;;;;;;;;;;;30.02;20.09;98945.00;5144503;27;1976;-26
2021/01/30 12:46:45;;;;;;;;;;;;;;;29.94;20.52;98947.06;5138705;27;842;-26
2021/01/30 12:49:10;;;;;;;;;;;;;;;30.21;19.10;98953.75;5138316;27;522;-28
2021/01/30 12:51:35;;;;;;;;;;;;;;;30.31;19.20;98953.06;5138790;27;748;-25
2021/01/30 12:54:00;;;;;;;;;;;;;;;30.75;19.10;98940.63;5138662;27;886;-28
2021/01/30 12:56:26;;;;;;;;;;;;;;;29.99;20.12;98953.63;5138466;27;754;-29
2021/01/30 12:58:51;;;;;;;;;;;;;;;30.00;20.16;98960.69;5138224;27;1102;-23
2021/01/30 13:01:16;;;;;;;;;;;;;;;30.06;20.12;98957.81;5138379;27;770;-32
2021/01/30 13:03:42;;;;;;;;;;;;;;;30.16;20.04;98953.63;5138277;27;1905;-23
2021/01/30 13:06:07;;;;;;;;;;;;;;;30.59;19.42;98964.88;5138503;27;795;-30
2021/01/30 13:08:32;;;;;;;;;;;;;;;31.06;19.01;98964.66;5138098;27;759;-30
2021/01/30 13:10:57;;;;;;;;;;;;;;;31.13;19.19;98968.00;5138188;27;835;-28
2021/01/30 13:13:23;;;;;;;;;;;;;;;30.81;19.77;98974.97;5137823;27;1012;-26